createdAt,value
2023-01-13T00:02:21.145Z,101591.43
2023-01-13T00:04:49.969Z,101596.65
2023-01-13T00:07:18.736Z,101594.91
2023-01-13T00:09:47.189Z,101595.31
2023-01-13T00:12:15.887Z,101597.41
2023-01-13T00:14:44.677Z,101594.34
2023-01-13T00:17:13.210Z,101595.02
2023-01-13T00:19:42.059Z,101594.82
2023-01-13T00:22:10.728Z,101595.88
2023-01-13T00:24:39.449Z,101595.88
2023-01-13T00:27:08.105Z,101592.16
2023-01-13T00:29:36.695Z,101591.66
2023-01-13T00:32:05.681Z,101595.31
2023-01-13T00:34:34.453Z,101592.67
2023-01-13T00:37:03.050Z,101594.46
2023-01-13T00:39:31.536Z,101600.27
2023-01-13T00:42:18.971Z,101600.48
2023-01-13T00:44:47.646Z,101598.52
2023-01-13T00:47:16.286Z,101604.08
2023-01-13T00:49:45.424Z,101604.12
2023-01-13T00:52:14.123Z,101602.81
2023-01-13T00:54:42.609Z,101603.20
2023-01-13T00:57:11.398Z,101599.72
2023-01-13T00:59:39.969Z,101602.60
2023-01-13T01:02:08.631Z,101602.58
2023-01-13T01:04:37.853Z,101601.71
2023-01-13T01:07:06.847Z,101602.95
2023-01-13T01:09:35.337Z,101601.13
2023-01-13T01:12:04.616Z,101598.34
2023-01-13T01:14:33.417Z,101596.08
2023-01-13T01:17:02.117Z,101592.51
2023-01-13T01:19:30.980Z,101592.83
2023-01-13T01:21:59.910Z,101587.18
2023-01-13T01:24:28.477Z,101582.91
2023-01-13T01:26:56.959Z,101582.52
2023-01-13T01:29:25.640Z,101580.90
2023-01-13T01:31:54.327Z,101579.07
2023-01-13T01:34:23.440Z,101581.06
2023-01-13T01:36:51.998Z,101576.26
2023-01-13T01:39:20.794Z,101576.13
2023-01-13T01:42:08.532Z,101571.40
2023-01-13T01:44:42.952Z,101573.37
2023-01-13T01:47:15.866Z,101570.33
2023-01-13T01:49:46.342Z,101566.54
2023-01-13T01:52:25.834Z,101565.54
2023-01-13T01:55:03.911Z,101564.40
2023-01-13T01:58:00.859Z,101562.83
2023-01-13T02:00:30.616Z,101563.73
2023-01-13T02:02:59.773Z,101563.48
2023-01-13T02:05:29.172Z,101558.81
2023-01-13T02:08:00.276Z,101557.20
2023-01-13T02:10:31.183Z,101557.75
2023-01-13T02:13:05.003Z,101552.82
2023-01-13T02:15:40.728Z,101554.36
2023-01-13T02:18:21.587Z,101558.01
2023-01-13T02:21:18.639Z,101558.80
2023-01-13T02:24:37.909Z,101554.83
2023-01-13T02:28:01.591Z,101560.49
2023-01-13T02:31:01.511Z,101560.27
2023-01-13T02:34:07.976Z,101560.61
2023-01-13T02:36:43.228Z,101564.61
2023-01-13T02:39:23.371Z,101559.70
2023-01-13T02:42:26.672Z,101557.47
2023-01-13T02:45:19.118Z,101557.35
2023-01-13T02:47:50.402Z,101557.06
2023-01-13T02:50:22.785Z,101549.78
2023-01-13T02:52:56.606Z,101551.30
2023-01-13T02:55:59.459Z,101553.73
2023-01-13T02:58:31.952Z,101554.80
2023-01-13T03:01:00.754Z,101552.95
2023-01-13T03:03:29.692Z,101552.28
2023-01-13T03:06:14.640Z,101551.21
2023-01-13T03:09:00.825Z,101552.20
2023-01-13T03:11:51.248Z,101553.34
2023-01-13T03:14:29.260Z,101550.67
2023-01-13T03:17:17.306Z,101554.34
2023-01-13T03:20:21.409Z,101555.27
2023-01-13T03:23:07.097Z,101553.58
2023-01-13T03:25:48.069Z,101554.05
2023-01-13T03:28:31.125Z,101554.60
2023-01-13T03:31:07.114Z,101554.44
2023-01-13T03:33:45.849Z,101555.14
2023-01-13T03:36:18.357Z,101553.14
2023-01-13T03:38:55.190Z,101552.00
2023-01-13T03:41:41.833Z,101553.27
2023-01-13T03:44:23.214Z,101557.80
2023-01-13T03:47:00.823Z,101556.58
2023-01-13T03:49:55.921Z,101558.77
2023-01-13T03:52:42.430Z,101562.39
2023-01-13T03:55:19.083Z,101563.27
2023-01-13T03:58:00.586Z,101568.08
2023-01-13T04:00:38.185Z,101572.64
2023-01-13T04:03:20.962Z,101572.89
2023-01-13T04:05:56.838Z,101574.56
2023-01-13T04:08:29.029Z,101580.88
2023-01-13T04:11:11.124Z,101581.86
2023-01-13T04:13:43.581Z,101580.20
2023-01-13T04:16:12.746Z,101580.36
2023-01-13T04:18:41.588Z,101573.80
2023-01-13T04:21:10.395Z,101579.56
2023-01-13T04:23:38.960Z,101578.85
2023-01-13T04:26:07.745Z,101576.55
2023-01-13T04:28:36.430Z,101576.95
2023-01-13T04:31:05.028Z,101573.84
2023-01-13T04:33:33.703Z,101576.91
2023-01-13T04:36:02.395Z,101584.58
2023-01-13T04:38:31.279Z,101583.18
2023-01-13T04:40:59.847Z,101582.55
2023-01-13T04:43:28.553Z,101583.18
2023-01-13T04:45:57.322Z,101580.27
2023-01-13T04:48:25.925Z,101580.27
2023-01-13T04:50:54.507Z,101585.83
2023-01-13T04:53:23.305Z,101585.20
2023-01-13T04:55:52.703Z,101583.80
2023-01-13T04:58:21.797Z,101582.41
2023-01-13T05:00:52.114Z,101584.27
2023-01-13T05:03:21.016Z,101583.80
2023-01-13T05:05:52.130Z,101587.48
2023-01-13T05:08:20.741Z,101588.97
2023-01-13T05:10:49.940Z,101591.80
2023-01-13T05:13:51.162Z,101592.67
2023-01-13T05:16:38.613Z,101591.95
2023-01-13T05:19:07.512Z,101590.84
2023-01-13T05:21:54.625Z,101590.36
2023-01-13T05:24:42.048Z,101592.77
2023-01-13T05:27:11.454Z,101589.36
2023-01-13T05:29:40.039Z,101589.16
2023-01-13T05:32:09.448Z,101589.96
2023-01-13T05:34:38.026Z,101594.33
2023-01-13T05:37:08.171Z,101592.31
2023-01-13T05:39:55.477Z,101588.05
2023-01-13T05:42:43.201Z,101588.00
2023-01-13T05:45:12.916Z,101584.94
2023-01-13T05:47:41.801Z,101583.02
2023-01-13T05:50:11.110Z,101585.62
2023-01-13T05:52:39.891Z,101588.20
2023-01-13T05:55:09.028Z,101586.69
2023-01-13T05:57:37.773Z,101591.96
2023-01-13T06:00:07.367Z,101592.46
2023-01-13T06:02:42.056Z,101594.61
2023-01-13T06:05:10.878Z,101596.08
2023-01-13T06:07:39.801Z,101600.00
2023-01-13T06:10:09.825Z,101605.33
2023-01-13T06:12:38.716Z,101608.89
2023-01-13T06:15:07.595Z,101612.73
2023-01-13T06:17:36.494Z,101613.67
2023-01-13T06:20:05.787Z,101618.55
2023-01-13T06:22:35.834Z,101620.65
2023-01-13T06:25:05.128Z,101622.21
2023-01-13T06:27:34.815Z,101627.50
2023-01-13T06:30:03.871Z,101630.84
2023-01-13T06:32:39.271Z,101635.08
2023-01-13T06:35:13.298Z,101632.83
2023-01-13T06:37:45.449Z,101637.52
2023-01-13T06:40:15.143Z,101641.64
2023-01-13T06:43:02.984Z,101643.41
2023-01-13T06:45:32.180Z,101646.73
2023-01-13T06:48:01.153Z,101650.06
2023-01-13T06:50:30.790Z,101653.55
2023-01-13T06:52:59.195Z,101646.20
2023-01-13T06:55:28.054Z,101648.27
2023-01-13T06:57:58.353Z,101646.13
2023-01-13T07:00:27.897Z,101648.58
2023-01-13T07:03:08.582Z,101649.95
2023-01-13T07:05:37.643Z,101654.05
2023-01-13T07:08:07.412Z,101653.64
2023-01-13T07:10:37.242Z,101654.43
2023-01-13T07:13:25.722Z,101655.88
2023-01-13T07:15:59.775Z,101656.42
2023-01-13T07:18:31.972Z,101655.39
2023-01-13T07:21:02.930Z,101650.55
2023-01-13T07:23:33.849Z,101651.58
2023-01-13T07:26:03.077Z,101655.29
2023-01-13T07:28:32.798Z,101651.55
2023-01-13T07:31:01.680Z,101647.38
2023-01-13T07:33:33.948Z,101645.11
2023-01-13T07:36:04.596Z,101648.07
2023-01-13T07:38:34.669Z,101652.71
2023-01-13T07:41:22.032Z,101658.50
2023-01-13T07:43:52.149Z,101655.05
2023-01-13T07:46:20.634Z,101656.17
2023-01-13T07:48:49.382Z,101655.54
2023-01-13T07:51:18.389Z,101653.15
2023-01-13T07:53:46.824Z,101656.70
2023-01-13T07:56:15.382Z,101662.23
2023-01-13T07:58:45.390Z,101659.12
2023-01-13T08:01:14.379Z,101660.23
2023-01-13T08:03:44.203Z,101660.57
2023-01-13T08:06:14.522Z,101662.39
2023-01-13T08:08:43.005Z,101666.65
2023-01-13T08:11:11.865Z,101671.48
2023-01-13T08:13:40.874Z,101675.17
2023-01-13T08:16:12.263Z,101672.81
2023-01-13T08:18:42.145Z,101674.27
2023-01-13T08:21:14.137Z,101671.81
2023-01-13T08:23:44.213Z,101674.92
2023-01-13T08:26:18.278Z,101675.52
2023-01-13T08:28:46.960Z,101677.69
2023-01-13T08:31:17.310Z,101674.69
2023-01-13T08:33:46.255Z,101675.89
2023-01-13T08:36:14.924Z,101676.75
2023-01-13T08:38:43.636Z,101681.90
2023-01-13T08:41:15.115Z,101682.38
2023-01-13T08:43:43.989Z,101684.79
2023-01-13T08:46:13.125Z,101683.59
2023-01-13T08:48:41.588Z,101687.77
2023-01-13T08:51:12.041Z,101683.47
2023-01-13T08:53:40.894Z,101682.15
2023-01-13T08:56:13.549Z,101681.61
2023-01-13T08:58:42.340Z,101681.63
2023-01-13T09:01:16.097Z,101681.73
2023-01-13T09:03:45.035Z,101677.51
2023-01-13T09:06:13.518Z,101675.22
2023-01-13T09:08:42.213Z,101668.67
2023-01-13T09:11:38.546Z,101672.07
2023-01-13T09:14:07.428Z,101662.95
2023-01-13T09:16:36.127Z,101665.14
2023-01-13T09:19:04.596Z,101662.21
2023-01-13T09:21:33.384Z,101660.60
2023-01-13T09:24:02.384Z,101652.30
2023-01-13T09:26:30.863Z,101651.57
2023-01-13T09:28:59.572Z,101648.28
2023-01-13T09:31:29.054Z,101648.33
2023-01-13T09:34:16.583Z,101648.23
2023-01-13T09:36:45.346Z,101645.05
2023-01-13T09:39:14.366Z,101641.68
2023-01-13T09:42:08.859Z,101637.31
2023-01-13T09:45:05.272Z,101631.33
2023-01-13T09:47:58.567Z,101626.73
2023-01-13T09:51:01.982Z,101628.60
2023-01-13T09:53:35.241Z,101623.19
2023-01-13T09:56:04.657Z,101625.51
2023-01-13T09:58:33.450Z,101621.36
2023-01-13T10:01:35.616Z,101619.90
2023-01-13T10:04:11.688Z,101618.50
2023-01-13T10:06:43.337Z,101612.82
2023-01-13T10:09:22.159Z,101612.83
2023-01-13T10:12:11.210Z,101609.75
2023-01-13T10:14:55.845Z,101605.44
2023-01-13T10:18:13.945Z,101599.79
2023-01-13T10:20:57.175Z,101591.08
2023-01-13T10:23:55.231Z,101585.39
2023-01-13T10:26:37.955Z,101579.86
2023-01-13T10:29:25.057Z,101581.17
2023-01-13T10:31:55.067Z,101580.89
2023-01-13T10:34:26.428Z,101579.23
2023-01-13T10:37:09.460Z,101577.33
2023-01-13T10:39:44.640Z,101569.69
2023-01-13T10:42:18.622Z,101571.12
2023-01-13T10:44:59.271Z,101565.61
2023-01-13T10:48:05.451Z,101564.63
2023-01-13T10:50:37.543Z,101568.45
2023-01-13T10:53:25.955Z,101567.58
2023-01-13T10:56:05.095Z,101567.36
2023-01-13T10:58:33.773Z,101565.17
2023-01-13T11:01:05.951Z,101564.66
2023-01-13T11:03:43.142Z,101566.70
2023-01-13T11:06:23.381Z,101560.64
2023-01-13T11:08:55.621Z,101562.55
2023-01-13T11:11:50.156Z,101559.03
2023-01-13T11:14:39.801Z,101555.67
2023-01-13T11:17:20.597Z,101558.92
2023-01-13T11:19:58.370Z,101558.09
2023-01-13T11:22:34.567Z,101555.72
2023-01-13T11:25:10.721Z,101552.58
2023-01-13T11:27:57.843Z,101549.02
2023-01-13T11:30:44.036Z,101543.41
2023-01-13T11:33:15.937Z,101540.86
2023-01-13T11:35:46.632Z,101539.36
2023-01-13T11:38:28.922Z,101538.54
2023-01-13T11:41:07.662Z,101534.27
2023-01-13T11:43:44.215Z,101535.06
2023-01-13T11:46:12.817Z,101530.48
2023-01-13T11:48:43.333Z,101531.88
2023-01-13T11:51:14.516Z,101524.29
2023-01-13T11:54:11.237Z,101525.54
2023-01-13T11:56:59.075Z,101521.88
2023-01-13T11:59:45.965Z,101518.92
2023-01-13T12:02:33.587Z,101511.80
2023-01-13T12:05:10.849Z,101510.55
2023-01-13T12:07:39.393Z,101510.85
2023-01-13T12:10:40.433Z,101512.98
2023-01-13T12:13:30.730Z,101511.80
2023-01-13T12:16:07.758Z,101511.04
2023-01-13T12:18:42.435Z,101512.36
2023-01-13T12:21:22.910Z,101508.15
2023-01-13T12:24:39.586Z,101509.80
2023-01-13T12:27:17.006Z,101504.70
2023-01-13T12:29:48.248Z,101502.13
2023-01-13T12:32:24.623Z,101502.23
2023-01-13T12:35:30.690Z,101506.69
2023-01-13T12:38:23.435Z,101507.96
2023-01-13T12:41:21.222Z,101509.38
2023-01-13T12:44:09.753Z,101507.01
2023-01-13T12:46:59.235Z,101507.82
2023-01-13T12:49:35.561Z,101506.48
2023-01-13T12:52:15.956Z,101511.67
2023-01-13T12:54:44.749Z,101513.45
2023-01-13T12:57:24.179Z,101513.84
2023-01-13T13:00:04.715Z,101510.95
2023-01-13T13:02:38.708Z,101512.81
2023-01-13T13:05:23.217Z,101514.06
2023-01-13T13:08:04.302Z,101517.58
2023-01-13T13:10:40.862Z,101516.30
2023-01-13T13:13:39.858Z,101519.20
2023-01-13T13:16:36.991Z,101521.58
2023-01-13T13:19:21.777Z,101522.83
2023-01-13T13:22:12.599Z,101522.48
2023-01-13T13:24:43.509Z,101525.53
2023-01-13T13:27:40.810Z,101534.48
2023-01-13T13:30:19.299Z,101535.16
2023-01-13T13:33:11.124Z,101535.86
2023-01-13T13:36:30.911Z,101538.70
2023-01-13T13:39:40.066Z,101541.38
2023-01-13T13:42:38.843Z,101543.67
2023-01-13T13:45:40.017Z,101538.55
2023-01-13T13:48:27.654Z,101538.14
2023-01-13T13:51:02.228Z,101543.37
2023-01-13T13:53:42.712Z,101545.84
2023-01-13T13:56:22.045Z,101540.44
2023-01-13T13:58:52.764Z,101543.87
2023-01-13T14:01:43.322Z,101544.65
2023-01-13T14:04:28.327Z,101542.11
2023-01-13T14:07:00.316Z,101544.82
2023-01-13T14:09:30.202Z,101545.48
2023-01-13T14:12:04.541Z,101544.80
2023-01-13T14:14:33.395Z,101544.76
2023-01-13T14:17:02.077Z,101538.07
2023-01-13T14:19:30.743Z,101535.48
2023-01-13T14:22:02.109Z,101534.77
2023-01-13T14:24:32.254Z,101535.30
2023-01-13T14:27:30.814Z,101538.31
2023-01-13T14:30:01.220Z,101537.04
2023-01-13T14:32:38.400Z,101541.48
2023-01-13T14:35:08.181Z,101541.08
2023-01-13T14:37:42.237Z,101544.48
2023-01-13T14:40:42.687Z,101549.09
2023-01-13T14:43:16.783Z,101547.59
2023-01-13T14:45:59.628Z,101548.52
2023-01-13T14:48:36.293Z,101546.08
2023-01-13T14:51:10.913Z,101549.27
2023-01-13T14:53:47.278Z,101547.44
2023-01-13T14:56:38.267Z,101548.73
2023-01-13T14:59:34.914Z,101544.45
2023-01-13T15:02:29.948Z,101547.53
2023-01-13T15:05:24.830Z,101548.85
2023-01-13T15:08:01.091Z,101551.73
2023-01-13T15:10:31.609Z,101551.30
2023-01-13T15:13:03.532Z,101557.24
2023-01-13T15:15:39.834Z,101555.32
2023-01-13T15:18:14.811Z,101557.73
2023-01-13T15:20:43.763Z,101558.72
2023-01-13T15:23:12.856Z,101561.03
2023-01-13T15:25:42.984Z,101560.11
2023-01-13T15:28:26.415Z,101562.17
2023-01-13T15:31:00.709Z,101558.83
2023-01-13T15:33:29.619Z,101560.39
2023-01-13T15:35:58.945Z,101559.02
2023-01-13T15:38:27.583Z,101558.72
2023-01-13T15:40:56.296Z,101559.83
2023-01-13T15:43:43.829Z,101557.63
2023-01-13T15:46:36.723Z,101557.15
2023-01-13T15:49:10.102Z,101560.41
2023-01-13T15:51:40.502Z,101559.69
2023-01-13T15:54:09.329Z,101559.45
2023-01-13T15:56:39.342Z,101559.89
2023-01-13T15:59:17.787Z,101562.58
2023-01-13T16:01:46.893Z,101561.27
2023-01-13T16:04:15.916Z,101562.09
2023-01-13T16:06:45.114Z,101561.98
2023-01-13T16:09:15.053Z,101566.90
2023-01-13T16:11:44.032Z,101561.67
2023-01-13T16:14:12.750Z,101566.92
2023-01-13T16:16:41.584Z,101568.84
2023-01-13T16:19:12.764Z,101570.08
2023-01-13T16:21:41.754Z,101568.60
2023-01-13T16:24:10.443Z,101570.11
2023-01-13T16:26:39.238Z,101564.95
2023-01-13T16:29:08.274Z,101567.04
2023-01-13T16:31:36.894Z,101567.73
2023-01-13T16:34:06.239Z,101565.89
2023-01-13T16:36:37.244Z,101568.91
2023-01-13T16:39:20.704Z,101566.84
2023-01-13T16:41:50.027Z,101570.73
2023-01-13T16:44:18.994Z,101569.94
2023-01-13T16:46:48.018Z,101568.66
2023-01-13T16:49:17.928Z,101569.13
2023-01-13T16:51:46.776Z,101565.73
2023-01-13T16:54:15.521Z,101566.14
2023-01-13T16:56:44.843Z,101568.75
2023-01-13T16:59:15.144Z,101567.43
2023-01-13T17:01:45.171Z,101568.19
2023-01-13T17:04:19.182Z,101565.02
2023-01-13T17:06:58.570Z,101564.63
2023-01-13T17:09:29.153Z,101565.08
2023-01-13T17:11:58.677Z,101567.50
2023-01-13T17:14:27.252Z,101568.08
2023-01-13T17:17:00.142Z,101568.19
2023-01-13T17:19:29.226Z,101569.36
2023-01-13T17:21:58.263Z,101571.15
2023-01-13T17:24:29.167Z,101572.64
2023-01-13T17:26:58.157Z,101568.90
2023-01-13T17:29:27.987Z,101568.04
2023-01-13T17:31:56.874Z,101570.80
2023-01-13T17:34:25.650Z,101571.52
2023-01-13T17:36:54.262Z,101570.70
2023-01-13T17:39:25.663Z,101573.35
2023-01-13T17:41:56.110Z,101569.85
2023-01-13T17:44:24.519Z,101572.52
2023-01-13T17:46:53.185Z,101575.65
2023-01-13T17:49:22.173Z,101577.80
2023-01-13T17:51:51.677Z,101574.87
2023-01-13T17:54:20.565Z,101574.02
2023-01-13T17:56:49.835Z,101577.38
2023-01-13T17:59:20.304Z,101574.95
2023-01-13T18:01:49.033Z,101567.40
2023-01-13T18:04:23.610Z,101562.80
2023-01-13T18:06:53.212Z,101562.72
2023-01-13T18:09:22.994Z,101559.00
2023-01-13T18:11:51.715Z,101556.46
2023-01-13T18:14:22.942Z,101556.35
2023-01-13T18:16:52.430Z,101553.78
2023-01-13T18:19:40.298Z,101556.64
2023-01-13T18:22:32.229Z,101556.38
2023-01-13T18:25:21.846Z,101559.38
2023-01-13T18:27:51.003Z,101558.96
2023-01-13T18:30:20.888Z,101562.63
2023-01-13T18:32:49.327Z,101561.70
2023-01-13T18:35:18.189Z,101564.13
2023-01-13T18:37:47.185Z,101565.68
2023-01-13T18:40:15.687Z,101564.85
2023-01-13T18:42:59.376Z,101558.54
2023-01-13T18:45:31.268Z,101559.67
2023-01-13T18:48:02.616Z,101558.11
2023-01-13T18:50:33.096Z,101556.47
2023-01-13T18:53:02.338Z,101553.27
2023-01-13T18:55:30.899Z,101552.92
2023-01-13T18:57:59.767Z,101548.16
2023-01-13T19:00:29.429Z,101551.13
2023-01-13T19:05:36.530Z,101550.75
2023-01-13T19:08:06.056Z,101546.15
2023-01-13T19:10:34.937Z,101547.23
2023-01-13T19:13:04.104Z,101552.29
2023-01-13T19:15:32.755Z,101549.08
2023-01-13T19:18:01.296Z,101550.86
2023-01-13T19:20:30.083Z,101552.09
2023-01-13T19:22:58.672Z,101552.75
2023-01-13T19:25:27.052Z,101557.67
2023-01-13T19:27:56.121Z,101558.48
2023-01-13T19:30:24.706Z,101557.83
2023-01-13T19:32:53.311Z,101555.64
2023-01-13T19:35:22.075Z,101557.75
2023-01-13T19:37:50.584Z,101554.03
2023-01-13T19:40:19.582Z,101559.38
2023-01-13T19:43:07.287Z,101556.08
2023-01-13T19:45:36.443Z,101555.92
2023-01-13T19:48:06.035Z,101553.12
2023-01-13T19:50:39.165Z,101553.95
2023-01-13T19:53:14.860Z,101554.95
2023-01-13T19:55:48.850Z,101550.55
2023-01-13T19:58:20.772Z,101548.34
2023-01-13T20:00:49.524Z,101547.42
2023-01-13T20:03:24.486Z,101547.43
2023-01-13T20:05:54.476Z,101548.50
2023-01-13T20:08:23.335Z,101552.02
2023-01-13T20:11:11.812Z,101548.98
2023-01-13T20:13:40.719Z,101546.14
2023-01-13T20:16:09.800Z,101538.61
2023-01-13T20:18:38.794Z,101538.92
2023-01-13T20:21:07.788Z,101546.70
2023-01-13T20:23:36.272Z,101546.75
2023-01-13T20:26:08.131Z,101548.42
2023-01-13T20:28:39.089Z,101548.44
2023-01-13T20:31:12.725Z,101550.17
2023-01-13T20:33:41.977Z,101550.67
2023-01-13T20:36:26.019Z,101555.84
2023-01-13T20:39:04.945Z,101554.48
2023-01-13T20:41:52.275Z,101551.66
2023-01-13T20:44:21.372Z,101553.23
2023-01-13T20:46:49.868Z,101551.16
2023-01-13T20:49:18.534Z,101559.55
2023-01-13T20:51:47.427Z,101552.59
2023-01-13T20:54:16.627Z,101551.05
2023-01-13T20:56:45.311Z,101547.95
2023-01-13T20:59:14.211Z,101546.23
2023-01-13T21:01:43.555Z,101544.70
2023-01-13T21:04:12.395Z,101542.89
2023-01-13T21:06:41.901Z,101538.64
2023-01-13T21:09:10.694Z,101533.10
2023-01-13T21:11:58.427Z,101534.52
2023-01-13T21:14:46.062Z,101527.80
2023-01-13T21:17:34.815Z,101526.27
2023-01-13T21:20:09.011Z,101527.13
2023-01-13T21:22:38.024Z,101527.67
2023-01-13T21:25:07.731Z,101524.67
2023-01-13T21:27:36.219Z,101520.69
2023-01-13T21:30:07.136Z,101521.63
2023-01-13T21:32:35.720Z,101522.83
2023-01-13T21:35:05.041Z,101523.53
2023-01-13T21:37:36.916Z,101522.49
2023-01-13T21:40:08.424Z,101525.25
2023-01-13T21:42:55.780Z,101526.89
2023-01-13T21:45:43.238Z,101523.80
2023-01-13T21:48:12.303Z,101522.81
2023-01-13T21:50:41.201Z,101527.31
2023-01-13T21:53:09.885Z,101526.41
2023-01-13T21:55:38.466Z,101525.95
2023-01-13T21:58:14.630Z,101523.46
2023-01-13T22:00:45.356Z,101517.00
2023-01-13T22:03:18.729Z,101515.20
2023-01-13T22:05:54.645Z,101515.13
2023-01-13T22:08:23.529Z,101513.98
2023-01-13T22:11:01.100Z,101510.11
2023-01-13T22:13:48.733Z,101513.48
2023-01-13T22:16:17.659Z,101516.41
2023-01-13T22:18:46.547Z,101519.88
2023-01-13T22:21:15.102Z,101519.42
2023-01-13T22:23:44.401Z,101515.18
2023-01-13T22:26:12.983Z,101516.05
2023-01-13T22:28:43.305Z,101514.89
2023-01-13T22:31:14.743Z,101510.66
2023-01-13T22:33:47.247Z,101509.41
2023-01-13T22:36:16.749Z,101508.33
2023-01-13T22:38:45.461Z,101506.20
2023-01-13T22:41:14.326Z,101504.77
2023-01-13T22:43:42.910Z,101499.44
2023-01-13T22:46:13.078Z,101496.77
2023-01-13T22:48:41.918Z,101498.04
2023-01-13T22:51:16.105Z,101496.33
2023-01-13T22:53:45.535Z,101498.15
2023-01-13T22:56:19.505Z,101497.34
2023-01-13T22:58:49.462Z,101493.98
2023-01-13T23:01:18.209Z,101493.68
2023-01-13T23:03:50.862Z,101494.40
2023-01-13T23:06:21.723Z,101491.09
2023-01-13T23:08:50.480Z,101490.16
2023-01-13T23:11:20.853Z,101492.20
2023-01-13T23:13:49.981Z,101491.73
2023-01-13T23:16:24.233Z,101488.85
2023-01-13T23:18:53.085Z,101486.94
2023-01-13T23:21:26.334Z,101484.77
2023-01-13T23:23:58.380Z,101482.14
2023-01-13T23:26:28.565Z,101480.95
2023-01-13T23:28:59.406Z,101482.69
2023-01-13T23:31:28.501Z,101480.48
2023-01-13T23:33:57.188Z,101483.89
2023-01-13T23:36:27.559Z,101485.14
2023-01-13T23:38:57.738Z,101478.70
2023-01-13T23:41:27.975Z,101481.41
2023-01-13T23:43:59.531Z,101476.56
2023-01-13T23:46:30.712Z,101473.19
2023-01-13T23:48:59.716Z,101471.73
2023-01-13T23:51:30.386Z,101472.95
2023-01-13T23:54:00.110Z,101467.82
2023-01-13T23:56:31.383Z,101469.79
2023-01-13T23:59:00.236Z,101472.75
